Time;durP1;ratioP1;P1;durP2;ratioP2;P2;SDS_P1;SDS_P2;PMS_P1;PMS_P2;Temp;Humidity;BMP_temperature;BMP_pressure;BME280_temperature;BME280_humidity;BME280_pressure;Samples;Min_cycle;Max_cycle;Signal;HPM_P1;HPM_P2
2024/04/27 00:00:33;;;;;;;15.35;4.67;;;;;;;19.91;47.16;100206.26;2281411;76;52414;-77
2024/04/27 00:03:35;;;;;;;12.80;4.42;;;;;;;19.92;47.12;100210.63;2274283;75;51021;-77
2024/04/27 00:06:38;;;;;;;12.80;4.42;;;;;;;19.91;47.09;100221.03;2298631;76;50314;-77
2024/04/27 00:09:41;;;;;;;9.85;4.20;;;;;;;19.89;47.07;100217.22;2305870;76;49611;-76
2024/04/27 00:12:43;;;;;;;8.63;3.45;;;;;;;19.89;47.03;100215.88;2313172;75;51547;-76
2024/04/27 00:15:46;;;;;;;12.82;4.35;;;;;;;19.89;47.01;100217.22;2289634;75;51592;-77
2024/04/27 00:18:48;;;;;;;13.62;4.72;;;;;;;19.88;46.96;100215.55;2285908;76;50968;-77
2024/04/27 00:21:51;;;;;;;11.43;4.53;;;;;;;19.87;46.97;100214.42;2323826;75;51473;-77
2024/04/27 00:24:53;;;;;;;10.28;4.28;;;;;;;19.86;47.00;100219.46;2328277;75;51569;-77
2024/04/27 00:27:55;;;;;;;11.15;4.42;;;;;;;19.86;46.95;100220.80;2316764;75;50976;-77
2024/04/27 00:30:57;;;;;;;17.98;4.65;;;;;;;19.84;46.91;100217.00;2289171;76;50378;-77
2024/04/27 00:33:59;;;;;;;14.20;4.20;;;;;;;19.86;46.88;100226.17;2305834;76;50378;-77
2024/04/27 00:37:01;;;;;;;12.33;4.00;;;;;;;19.84;46.89;100225.58;2290605;75;50763;-77
2024/04/27 00:40:05;;;;;;;11.53;4.10;;;;;;;19.83;46.88;100229.27;2285640;75;50698;-77
2024/04/27 00:43:08;;;;;;;13.62;4.28;;;;;;;19.83;46.87;100235.45;2304850;75;52637;-77
2024/04/27 00:46:10;;;;;;;7.87;3.72;;;;;;;19.80;46.87;100234.00;2328602;75;50268;-77
2024/04/27 00:49:13;;;;;;;12.60;3.90;;;;;;;19.83;46.81;100238.14;2295501;75;50742;-78
2024/04/27 00:52:15;;;;;;;10.72;4.08;;;;;;;19.83;46.79;100235.98;2287878;76;50317;-77
2024/04/27 00:55:17;;;;;;;11.08;3.70;;;;;;;19.80;46.78;100238.03;2301055;75;50695;-77
2024/04/27 00:58:21;;;;;;;10.80;3.65;;;;;;;19.80;46.80;100249.29;2325884;74;51472;-77
2024/04/27 01:01:25;;;;;;;13.30;4.20;;;;;;;19.79;46.76;100250.33;2304883;75;50330;-77
2024/04/27 01:04:27;;;;;;;10.48;3.80;;;;;;;19.78;46.72;100246.83;2293661;75;50325;-76
2024/04/27 01:07:29;;;;;;;11.03;3.65;;;;;;;19.79;46.67;100253.84;2295706;76;50368;-77
2024/04/27 01:10:31;;;;;;;9.40;3.80;;;;;;;19.79;46.61;100247.13;2306538;75;50135;-76
2024/04/27 01:13:34;;;;;;;9.90;3.80;;;;;;;19.79;46.60;100255.70;2318218;75;50463;-77
2024/04/27 01:16:36;;;;;;;8.30;3.27;;;;;;;19.78;46.61;100249.52;2342184;75;50691;-76
2024/04/27 01:19:38;;;;;;;8.98;3.87;;;;;;;19.79;46.61;100257.05;2319685;75;51503;-78
2024/04/27 01:22:40;;;;;;;8.60;3.67;;;;;;;19.76;46.64;100262.30;2282578;75;51503;-77
2024/04/27 01:25:42;;;;;;;11.33;3.15;;;;;;;19.76;46.64;100272.22;2299634;75;51065;-78
2024/04/27 01:28:45;;;;;;;7.28;3.35;;;;;;;19.76;46.62;100273.03;2304111;75;50409;-77
2024/04/27 01:31:47;;;;;;;9.08;3.25;;;;;;;19.75;46.62;100271.88;2306261;75;50268;-77
2024/04/27 01:34:49;;;;;;;9.43;3.12;;;;;;;19.75;46.56;100265.99;2305475;76;50103;-76
2024/04/27 01:37:51;;;;;;;8.60;3.33;;;;;;;19.74;46.56;100266.21;2315043;75;51504;-77
2024/04/27 01:40:54;;;;;;;8.73;4.03;;;;;;;19.72;46.58;100271.77;2313731;75;50344;-77
2024/04/27 01:43:56;;;;;;;8.05;3.50;;;;;;;19.74;46.48;100274.27;2334736;75;50666;-77
2024/04/27 01:46:58;;;;;;;8.20;3.55;;;;;;;19.74;46.48;100280.45;2308051;75;51634;-77
2024/04/27 01:50:00;;;;;;;9.35;3.45;;;;;;;19.74;46.41;100276.95;2293237;76;51500;-77
2024/04/27 01:53:02;;;;;;;10.85;3.40;;;;;;;19.74;46.39;100275.61;2274392;76;51510;-77
2024/04/27 01:56:05;;;;;;;9.10;3.50;;;;;;;19.75;46.36;100274.56;2311180;75;51474;-78
2024/04/27 01:59:10;;;;;;;6.20;3.08;;;;;;;19.73;46.38;100269.91;2242185;75;50045;-77
2024/04/27 02:02:11;;;;;;;9.63;3.02;;;;;;;19.72;46.42;100274.97;2325137;75;22464;-77
2024/04/27 02:05:13;;;;;;;7.35;3.30;;;;;;;19.72;46.40;100276.31;2319536;75;51383;-77
2024/04/27 02:08:15;;;;;;;7.47;3.17;;;;;;;19.71;46.40;100276.83;2305558;76;50660;-77
2024/04/27 02:11:18;;;;;;;6.90;3.20;;;;;;;19.71;46.40;100277.36;2328367;75;52557;-77
2024/04/27 02:14:20;;;;;;;8.95;2.85;;;;;;;19.69;46.37;100278.06;2272392;76;49629;-77
2024/04/27 02:20:43;;;;;;;7.42;3.20;;;;;;;19.70;46.30;100287.76;2295306;75;25430;-77
2024/04/27 02:23:45;;;;;;;7.45;3.58;;;;;;;19.68;46.33;100283.09;2272739;76;51742;-78
2024/04/27 02:26:47;;;;;;;7.87;3.30;;;;;;;19.69;46.28;100288.28;2341912;75;51485;-77
2024/04/27 02:29:49;;;;;;;8.03;3.50;;;;;;;19.68;46.30;100287.13;2306780;75;50252;-78
2024/04/27 02:32:51;;;;;;;6.78;3.20;;;;;;;19.68;46.26;100288.47;2305376;75;51450;-77
2024/04/27 02:35:54;;;;;;;8.33;3.20;;;;;;;19.68;46.19;100285.30;2298172;76;50061;-77
2024/04/27 02:38:56;;;;;;;6.87;2.87;;;;;;;19.69;46.18;100287.45;2298321;76;49577;-77
2024/04/27 02:41:58;;;;;;;6.83;2.80;;;;;;;19.68;46.15;100288.47;2300289;75;50342;-78
2024/04/27 02:45:00;;;;;;;5.28;2.83;;;;;;;19.68;46.12;100294.69;2305597;75;50639;-77
2024/04/27 02:48:02;;;;;;;8.20;3.10;;;;;;;19.67;46.10;100298.37;2283571;76;50967;-76
2024/04/27 02:51:05;;;;;;;5.15;3.02;;;;;;;19.68;46.04;100297.86;2278863;75;50336;-76
2024/04/27 02:54:07;;;;;;;5.55;3.02;;;;;;;19.66;46.07;100298.05;2305777;75;51472;-76
2024/04/27 02:57:09;;;;;;;5.90;3.25;;;;;;;19.68;46.04;100297.86;2296729;75;50076;-77
2024/04/27 03:00:12;;;;;;;8.28;3.17;;;;;;;19.68;46.02;100305.42;2296040;75;50360;-77
2024/04/27 03:03:14;;;;;;;5.65;3.12;;;;;;;19.66;46.06;100299.91;2240162;75;51170;-77
2024/04/27 03:06:16;;;;;;;5.53;2.70;;;;;;;19.65;46.03;100308.48;2299692;75;50613;-77
2024/04/27 03:09:18;;;;;;;4.30;2.85;;;;;;;19.65;46.01;100305.80;2291155;75;51514;-77
2024/04/27 03:12:21;;;;;;;6.67;3.12;;;;;;;19.64;46.03;100310.00;2302997;75;50972;-77
2024/04/27 03:15:23;;;;;;;5.85;3.05;;;;;;;19.63;46.02;100312.39;2295519;76;51552;-76
2024/04/27 03:18:26;;;;;;;6.30;2.72;;;;;;;19.62;46.00;100312.88;2293603;74;50682;-76
2024/04/27 03:21:28;;;;;;;7.75;3.22;;;;;;;19.62;45.99;100318.77;2301823;76;51521;-76
2024/04/27 03:24:32;;;;;;;6.20;3.20;;;;;;;19.62;45.97;100314.73;2299681;76;50696;-77
2024/04/27 03:27:34;;;;;;;8.10;3.55;;;;;;;19.62;45.93;100319.59;2262048;76;49632;-76
2024/04/27 03:30:36;;;;;;;5.30;2.65;;;;;;;19.62;45.88;100321.45;2330200;75;50418;-77
2024/04/27 03:33:38;;;;;;;5.40;3.05;;;;;;;19.61;45.89;100327.33;2298269;75;50698;-76
2024/04/27 03:36:41;;;;;;;5.35;2.70;;;;;;;19.61;45.92;100325.99;2294712;75;49592;-76
2024/04/27 03:39:44;;;;;;;10.23;2.95;;;;;;;19.60;45.89;100324.34;2311362;75;51529;-77
2024/04/27 03:42:46;;;;;;;6.50;3.22;;;;;;;19.61;45.84;100326.52;2315046;75;50369;-76
2024/04/27 03:45:48;;;;;;;5.35;2.92;;;;;;;19.62;45.81;100326.81;2301911;75;51489;-77
2024/04/27 03:48:51;;;;;;;6.70;3.27;;;;;;;19.61;45.82;100331.87;2283887;75;51518;-77
2024/04/27 03:51:53;;;;;;;5.83;2.90;;;;;;;19.59;45.81;100333.41;2283076;76;52685;-77
2024/04/27 03:54:55;;;;;;;9.13;3.15;;;;;;;19.59;45.76;100333.41;2276296;76;50319;-76
2024/04/27 03:57:59;;;;;;;4.55;2.60;;;;;;;19.58;45.80;100341.98;2305967;75;51545;-77
2024/04/27 04:01:01;;;;;;;7.83;3.10;;;;;;;19.58;45.76;100346.00;2293291;76;49519;-77
2024/04/27 04:04:04;;;;;;;6.62;2.92;;;;;;;19.58;45.74;100348.69;2301111;75;51561;-76
2024/04/27 04:07:06;;;;;;;4.65;2.85;;;;;;;19.58;45.74;100347.86;2298383;76;50847;-76
2024/04/27 04:10:08;;;;;;;5.40;2.77;;;;;;;19.58;45.72;100349.20;2310776;75;51415;-76
2024/04/27 04:13:10;;;;;;;5.83;3.10;;;;;;;19.58;45.69;100361.28;2300856;75;51526;-77
2024/04/27 04:16:12;;;;;;;6.47;3.15;;;;;;;19.58;45.68;100358.59;2302608;75;51016;-76
2024/04/27 04:19:15;;;;;;;7.83;2.98;;;;;;;19.57;45.68;100363.14;2301901;75;50341;-77
2024/04/27 04:22:18;;;;;;;5.97;2.83;;;;;;;19.58;45.68;100362.63;2284854;76;50489;-77
2024/04/27 04:25:20;;;;;;;4.95;2.90;;;;;;;19.58;45.63;100366.66;2295670;76;51614;-76
2024/04/27 04:28:22;;;;;;;4.85;2.80;;;;;;;19.58;45.59;100361.28;2299446;75;51618;-76
2024/04/27 04:31:24;;;;;;;8.65;3.40;;;;;;;19.57;45.55;100359.61;2274776;76;50664;-77
2024/04/27 04:34:27;;;;;;;8.53;3.08;;;;;;;19.57;45.62;100362.29;2300614;76;51515;-77
2024/04/27 04:37:29;;;;;;;8.83;3.37;;;;;;;19.56;45.77;100367.36;2312682;75;50688;-77
2024/04/27 04:40:31;;;;;;;5.25;2.98;;;;;;;19.57;45.75;100366.31;2255761;76;51019;-77
2024/04/27 04:43:33;;;;;;;6.37;2.67;;;;;;;19.56;45.73;100373.55;2325939;75;51511;-77
2024/04/27 04:46:36;;;;;;;8.10;3.35;;;;;;;19.56;45.71;100370.03;2292772;76;51502;-77
2024/04/27 04:49:38;;;;;;;5.75;2.80;;;;;;;19.56;45.69;100380.25;2244634;78;50867;-77
2024/04/27 04:52:42;;;;;;;8.78;3.00;;;;;;;19.57;45.69;100378.39;2355216;75;51493;-77
2024/04/27 04:55:44;;;;;;;5.45;2.70;;;;;;;19.56;45.72;100374.88;2357951;75;50678;-77
2024/04/27 04:58:46;;;;;;;6.12;2.83;;;;;;;19.53;45.78;100382.52;2358142;74;51542;-77
2024/04/27 05:01:48;;;;;;;5.45;3.25;;;;;;;19.55;45.77;100385.84;2267299;78;51447;-77
2024/04/27 05:04:50;;;;;;;7.37;2.90;;;;;;;19.56;45.77;100384.80;2274287;78;51501;-77
2024/04/27 05:07:53;;;;;;;5.87;3.08;;;;;;;19.56;45.77;100395.53;2255580;78;50273;-77
2024/04/27 05:10:55;;;;;;;10.30;3.25;;;;;;;19.52;45.82;100388.40;2254124;78;51510;-78
2024/04/27 05:13:57;;;;;;;6.35;3.20;;;;;;;19.52;45.83;100386.20;2255703;78;49547;-77
2024/04/27 05:16:59;;;;;;;11.33;3.60;;;;;;;19.53;45.87;100378.48;2281390;77;50317;-76
2024/04/27 05:20:02;;;;;;;4.95;2.90;;;;;;;19.51;45.91;100389.92;2279251;77;50253;-76
2024/04/27 05:23:05;;;;;;;6.72;3.37;;;;;;;19.53;45.91;100394.59;2345843;75;51508;-76
2024/04/27 05:26:08;;;;;;;14.90;3.17;;;;;;;19.54;45.98;100394.89;2290998;76;52121;-77
2024/04/27 05:29:10;;;;;;;12.70;3.87;;;;;;;19.56;46.51;100399.04;2289248;76;52839;-77
2024/04/27 05:32:12;;;;;;;10.78;3.70;;;;;;;19.57;46.60;100394.01;2278400;76;52271;-77
2024/04/27 05:35:14;;;;;;;15.38;3.87;;;;;;;19.59;46.62;100400.50;2322118;75;51453;-78
2024/04/27 05:38:17;;;;;;;16.30;3.50;;;;;;;19.62;46.83;100404.65;2231517;78;50039;-79
2024/04/27 05:41:20;;;;;;;13.90;3.58;;;;;;;19.65;46.97;100418.53;2281910;76;51533;-79
2024/04/27 05:44:23;;;;;;;12.07;6.40;;;;;;;19.67;47.13;100415.14;2307086;76;50739;-78
2024/04/27 05:47:25;;;;;;;18.27;5.22;;;;;;;19.53;42.96;100416.05;2334725;75;50206;-79
2024/04/27 05:50:27;;;;;;;18.92;5.15;;;;;;;19.41;42.35;100425.66;2291363;76;50373;-77
2024/04/27 05:53:29;;;;;;;13.25;5.37;;;;;;;19.39;44.12;100429.86;2287373;75;51203;-76
2024/04/27 05:56:32;;;;;;;19.48;5.67;;;;;;;19.40;45.29;100414.62;2305179;75;50649;-75
2024/04/27 05:59:34;;;;;;;18.92;4.97;;;;;;;19.42;45.79;100416.56;2320210;75;52474;-77
2024/04/27 06:02:36;;;;;;;24.95;5.90;;;;;;;19.43;46.04;100412.88;2300565;76;50099;-77
2024/04/27 06:05:38;;;;;;;19.48;5.10;;;;;;;19.45;46.82;100414.34;2295024;75;52232;-76
2024/04/27 06:08:41;;;;;;;26.87;5.85;;;;;;;19.48;46.82;100419.84;2308320;75;50823;-77
2024/04/27 06:11:43;;;;;;;30.52;6.22;;;;;;;19.50;47.68;100416.45;2292956;75;51490;-77
2024/04/27 06:14:48;;;;;;;32.20;6.17;;;;;;;19.56;47.76;100423.71;2305864;75;51507;-77
2024/04/27 06:17:50;;;;;;;26.90;5.40;;;;;;;19.59;47.69;100417.95;2286536;75;49618;-77
2024/04/27 06:20:52;;;;;;;25.20;5.85;;;;;;;19.64;47.79;100424.91;2303528;75;50694;-76
2024/04/27 06:23:54;;;;;;;19.67;5.35;;;;;;;19.65;47.92;100421.70;2303918;75;51541;-77
2024/04/27 06:26:56;;;;;;;22.22;5.75;;;;;;;19.68;47.94;100418.65;2253844;77;51000;-76
2024/04/27 06:29:59;;;;;;;18.25;5.10;;;;;;;19.69;48.07;100423.02;2271686;76;51432;-78
2024/04/27 06:33:01;;;;;;;28.83;5.53;;;;;;;19.71;48.11;100424.48;2271559;78;51416;-77
2024/04/27 06:36:03;;;;;;;28.73;5.80;;;;;;;19.73;48.24;100430.97;2293102;76;50786;-77
2024/04/27 06:39:05;;;;;;;27.60;5.37;;;;;;;19.72;48.25;100431.49;2271273;76;51414;-78
2024/04/27 06:42:08;;;;;;;26.82;5.42;;;;;;;19.75;49.06;100437.80;2249760;75;51678;-77
2024/04/27 06:45:10;;;;;;;24.27;5.67;;;;;;;19.75;48.87;100439.15;2320196;75;51281;-77
2024/04/27 06:48:12;;;;;;;27.22;5.20;;;;;;;19.78;48.67;100441.47;2311011;75;50254;-78
2024/04/27 06:51:14;;;;;;;16.10;4.92;;;;;;;19.79;48.63;100440.95;2280169;76;51026;-77
2024/04/27 06:54:17;;;;;;;25.70;5.55;;;;;;;19.82;48.71;100443.75;2301866;76;51438;-77
2024/04/27 06:57:19;;;;;;;27.30;5.85;;;;;;;19.81;48.73;100446.95;2249911;78;51598;-78
2024/04/27 07:00:21;;;;;;;30.45;5.53;;;;;;;19.82;48.65;100447.78;2272003;78;50770;-77
2024/04/27 07:03:23;;;;;;;25.97;5.33;;;;;;;19.84;48.69;100451.11;2271741;78;50285;-77
2024/04/27 07:06:25;;;;;;;29.85;5.75;;;;;;;19.85;48.68;100458.95;2247923;77;50803;-78
2024/04/27 07:09:28;;;;;;;26.35;6.00;;;;;;;19.84;48.72;100463.19;2271713;78;50693;-78
2024/04/27 07:12:30;;;;;;;25.90;5.20;;;;;;;19.85;48.63;100465.66;2273425;77;50735;-78
2024/04/27 07:15:32;;;;;;;21.90;5.80;;;;;;;19.85;48.75;100474.23;2247938;78;51033;-77
2024/04/27 07:18:34;;;;;;;30.65;5.72;;;;;;;19.90;48.63;100471.27;2223754;78;51386;-77
2024/04/27 07:21:36;;;;;;;18.10;4.80;;;;;;;19.88;48.56;100468.47;2271398;78;50439;-77
2024/04/27 07:24:39;;;;;;;26.40;5.58;;;;;;;19.87;48.62;100464.13;2271268;78;50388;-77
2024/04/27 07:27:41;;;;;;;26.70;5.78;;;;;;;19.85;48.56;100477.73;2271250;77;50603;-78
2024/04/27 07:30:43;;;;;;;18.98;4.92;;;;;;;19.85;48.47;100479.08;2248133;78;50061;-77
2024/04/27 07:33:45;;;;;;;23.67;4.78;;;;;;;19.87;48.32;100480.24;2273119;77;51476;-77
2024/04/27 07:36:48;;;;;;;27.52;5.60;;;;;;;19.86;48.27;100486.13;2273030;77;50681;-77
2024/04/27 07:39:50;;;;;;;24.23;5.33;;;;;;;19.84;48.25;100481.98;2248037;78;50957;-77
2024/04/27 07:42:52;;;;;;;25.25;5.03;;;;;;;19.86;48.13;100487.96;2273213;77;50707;-77
2024/04/27 07:45:54;;;;;;;25.35;5.67;;;;;;;19.85;48.01;100483.11;2271208;77;51472;-77
2024/04/27 07:48:56;;;;;;;27.62;5.85;;;;;;;19.83;47.98;100484.33;2272278;77;50208;-78
2024/04/27 07:51:59;;;;;;;33.35;4.85;;;;;;;19.80;47.99;100484.20;2272257;77;50353;-78
2024/04/27 07:55:01;;;;;;;28.73;4.95;;;;;;;19.82;47.99;100482.69;2248362;78;51141;-77
2024/04/27 07:58:03;;;;;;;17.48;5.00;;;;;;;19.82;47.99;100490.73;2272060;77;50323;-78
2024/04/27 08:01:06;;;;;;;22.70;4.92;;;;;;;19.79;47.93;100488.75;2224544;78;51556;-78
2024/04/27 08:04:08;;;;;;;19.48;4.45;;;;;;;19.78;47.75;100488.94;2248495;78;50237;-76
2024/04/27 08:07:10;;;;;;;16.48;4.70;;;;;;;19.71;45.02;100486.73;2271165;77;51414;-78
2024/04/27 08:10:13;;;;;;;15.35;4.40;;;;;;;19.69;46.07;100494.14;2273249;78;51500;-77
2024/04/27 08:13:15;;;;;;;12.65;3.83;;;;;;;19.67;45.84;100497.02;2272971;78;51495;-78
2024/04/27 08:16:17;;;;;;;18.10;4.15;;;;;;;19.65;45.25;100496.38;2271270;77;50351;-77
2024/04/27 08:19:19;;;;;;;17.77;4.70;;;;;;;19.66;44.69;100495.33;2247918;78;49507;-79
2024/04/27 08:22:21;;;;;;;8.70;4.00;;;;;;;19.66;47.08;100498.02;2248744;78;50597;-78
2024/04/27 08:25:24;;;;;;;14.23;3.87;;;;;;;19.64;42.56;100496.55;2271945;77;51517;-79
2024/04/27 08:28:27;;;;;;;16.50;4.03;;;;;;;19.63;43.98;100482.30;2248119;78;50121;-77
2024/04/27 08:31:29;;;;;;;10.68;3.42;;;;;;;19.61;43.76;100489.72;2271787;78;51574;-78
2024/04/27 08:34:31;;;;;;;7.87;3.37;;;;;;;19.59;44.42;100490.41;2272059;78;51507;-78
2024/04/27 08:37:33;;;;;;;16.40;4.15;;;;;;;19.61;44.23;100482.18;2271998;77;51516;-80
2024/04/27 08:40:35;;;;;;;17.10;3.70;;;;;;;19.60;44.37;100488.06;2271943;78;51529;-78
2024/04/27 08:43:38;;;;;;;9.25;3.08;;;;;;;19.61;43.69;100469.59;2249218;76;51050;-77
2024/04/27 08:46:40;;;;;;;12.05;3.37;;;;;;;19.61;43.59;100480.32;2315964;76;51541;-77
2024/04/27 08:49:43;;;;;;;13.00;3.80;;;;;;;19.63;43.56;100474.25;2316326;76;51665;-76
2024/04/27 08:52:45;;;;;;;13.00;4.12;;;;;;;19.65;42.79;100479.41;2292008;76;50100;-77
2024/04/27 08:55:50;;;;;;;12.95;3.12;;;;;;;19.69;42.81;100479.38;2316256;76;51521;-79
2024/04/27 08:58:52;;;;;;;;;;;;;;;19.72;42.78;100473.10;2319417;76;50665;-80
2024/04/27 09:01:55;;;;;;;17.17;3.42;;;;;;;19.73;43.15;100475.27;2264098;76;51954;-79
2024/04/27 09:04:57;;;;;;;14.05;3.60;;;;;;;19.75;43.59;100479.41;2316652;76;50220;-79
2024/04/27 09:07:59;;;;;;;19.27;3.42;;;;;;;19.77;43.66;100481.40;2316812;76;50445;-79
2024/04/27 09:11:01;;;;;;;24.72;7.47;;;;;;;19.80;43.88;100476.98;2317026;76;50716;-78
2024/04/27 09:14:04;;;;;;;23.35;6.05;;;;;;;19.85;44.67;100477.73;2316726;76;50669;-79
2024/04/27 09:17:06;;;;;;;16.67;5.58;;;;;;;19.87;45.44;100473.53;2292232;76;51427;-80
2024/04/27 09:20:14;;;;;;;24.20;6.97;;;;;;;19.91;45.81;100474.78;2293410;76;50120;-78
2024/04/27 09:23:17;;;;;;;19.85;5.90;;;;;;;19.96;46.30;100475.88;2291267;76;49573;-78
2024/04/27 09:26:19;;;;;;;17.48;5.20;;;;;;;20.02;46.62;100479.62;2292453;76;50948;-77
2024/04/27 09:29:21;;;;;;;13.93;4.92;;;;;;;20.05;46.57;100473.86;2318260;76;51409;-77
2024/04/27 09:32:23;;;;;;;19.02;4.92;;;;;;;20.07;46.40;100473.15;2292168;76;50672;-77
2024/04/27 09:35:26;;;;;;;24.02;5.00;;;;;;;20.12;46.46;100474.73;2291746;76;50933;-77
2024/04/27 09:38:30;;;;;;;21.45;4.90;;;;;;;20.14;46.26;100474.03;2316364;76;50438;-77
2024/04/27 09:41:32;;;;;;;19.75;4.85;;;;;;;20.18;46.29;100471.24;2316426;76;51586;-76
2024/04/27 09:44:36;;;;;;;27.02;5.20;;;;;;;20.19;46.60;100470.23;2292029;76;49627;-76
2024/04/27 09:47:48;;;;;;;28.90;5.05;;;;;;;20.21;47.03;100478.91;2316332;76;51538;-76
2024/04/27 09:50:53;;;;;;;31.75;4.75;;;;;;;20.21;47.64;100468.67;2316392;76;51513;-76
2024/04/27 09:53:55;;;;;;;;;;;;;;;20.21;47.14;100478.91;2318982;76;53352;-76
2024/04/27 09:56:57;;;;;;;19.27;3.95;;;;;;;20.21;46.10;100472.19;2316194;76;50807;-77
2024/04/27 09:59:59;;;;;;;21.77;4.40;;;;;;;20.23;44.94;100487.59;2317333;76;51499;-76
2024/04/27 10:03:02;;;;;;;20.50;4.22;;;;;;;20.23;44.10;100492.97;2316222;76;51446;-77
2024/04/27 10:06:20;;;;;;;12.40;3.25;;;;;;;20.19;43.31;100497.10;2316023;76;51584;-76
2024/04/27 10:09:40;;;;;;;14.58;2.72;;;;;;;20.18;42.33;100490.05;2266527;76;50155;-76
2024/04/27 10:12:42;;;;;;;11.70;2.08;;;;;;;20.18;41.90;100488.70;2293731;76;50327;-76
2024/04/27 10:15:45;;;;;;;8.95;2.17;;;;;;;;;;2296448;75;51529;-76
2024/04/27 10:18:51;;;;;;;6.53;2.30;;;;;;;20.12;40.95;100487.34;2264533;76;51702;-76
2024/04/27 10:21:52;;;;;;;;;;;;;;;20.10;40.57;100483.50;2304260;76;50339;-76
2024/04/27 10:25:12;;;;;;;7.05;1.98;;;;;;;20.10;40.63;100482.16;2297238;76;50682;-77
2024/04/27 10:28:15;;;;;;;3.70;1.65;;;;;;;20.12;40.39;100481.97;2297034;76;52894;-78
2024/04/27 10:31:17;;;;;;;6.75;1.80;;;;;;;20.16;40.57;100473.29;2291973;76;50433;-78
2024/04/27 10:34:19;;;;;;;9.90;8.90;;;;;;;20.16;40.63;100480.01;2282710;76;50723;-76
2024/04/27 10:37:21;;;;;;;11.35;4.70;;;;;;;20.18;41.34;100465.87;2273522;77;50073;-79
2024/04/27 10:40:24;;;;;;;3.60;1.90;;;;;;;20.28;40.95;100472.23;2271416;77;50728;-76
2024/04/27 10:43:26;;;;;;;5.30;1.90;;;;;;;20.18;37.14;100469.08;2285747;76;50301;-76
2024/04/27 10:46:28;;;;;;;3.67;1.87;;;;;;;20.10;38.94;100462.01;2305483;76;50264;-76
2024/04/27 10:49:32;;;;;;;2.55;1.60;;;;;;;20.15;38.79;100452.02;2265919;77;50065;-76
2024/04/27 10:52:34;;;;;;;3.85;1.80;;;;;;;20.16;39.35;100469.27;2243597;78;49611;-76
2024/04/27 10:55:37;;;;;;;6.35;1.92;;;;;;;20.16;39.56;100454.48;2274412;78;50319;-78
2024/04/27 10:58:40;;;;;;;6.83;1.87;;;;;;;20.18;39.81;100445.72;2282224;76;51461;-76
2024/04/27 11:01:42;;;;;;;13.62;2.40;;;;;;;20.19;40.17;100438.00;2285668;76;51043;-78
2024/04/27 11:04:45;;;;;;;11.48;2.15;;;;;;;20.21;40.64;100446.66;2291863;76;50430;-75
2024/04/27 11:07:47;;;;;;;18.62;3.47;;;;;;;20.28;41.28;100466.04;2313927;76;49824;-75
2024/04/27 11:10:50;;;;;;;22.73;2.58;;;;;;;20.27;41.28;100442.86;2296135;76;51542;-74
2024/04/27 11:13:52;;;;;;;23.90;3.45;;;;;;;20.30;40.90;100432.56;2274200;76;50361;-75
2024/04/27 11:16:58;;;;;;;21.30;2.60;;;;;;;20.35;41.71;100438.69;2243146;78;49579;-75
2024/04/27 11:20:00;;;;;;;26.37;3.60;;;;;;;20.39;42.17;100443.96;2284941;76;50126;-75
2024/04/27 11:23:03;;;;;;;33.08;2.92;;;;;;;20.41;42.53;100436.53;2282305;76;50188;-74
2024/04/27 11:26:05;;;;;;;15.72;2.42;;;;;;;20.44;42.76;100438.81;2247405;78;51501;-74
2024/04/27 11:29:07;;;;;;;19.60;3.72;;;;;;;20.47;42.99;100431.69;2271374;77;52394;-76
2024/04/27 11:32:09;;;;;;;21.20;3.90;;;;;;;20.49;43.28;100432.33;2297943;76;52572;-76
2024/04/27 11:35:11;;;;;;;26.33;4.50;;;;;;;20.48;43.05;100433.89;2289375;76;50741;-76
2024/04/27 11:38:14;;;;;;;38.00;4.70;;;;;;;20.48;43.70;100427.99;2236904;76;52138;-77
2024/04/27 11:41:16;;;;;;;38.15;5.33;;;;;;;20.53;43.77;100426.05;2256921;76;50763;-77
2024/04/27 11:44:18;;;;;;;34.20;4.00;;;;;;;20.53;44.42;100433.59;2257129;76;50353;-77
2024/04/27 11:47:20;;;;;;;35.88;5.10;;;;;;;20.56;44.34;100430.53;2274268;76;50708;-77
2024/04/27 11:50:22;;;;;;;38.58;4.40;;;;;;;20.56;44.86;100437.77;2243676;78;50964;-76
2024/04/27 11:53:25;;;;;;;22.85;3.87;;;;;;;20.59;44.65;100431.47;2300237;76;51443;-76
2024/04/27 11:56:27;;;;;;;35.73;3.87;;;;;;;20.63;44.66;100430.05;2274944;76;51439;-76
2024/04/27 11:59:29;;;;;;;30.68;3.65;;;;;;;20.64;45.07;100420.94;2274283;78;51502;-76
2024/04/27 12:02:32;;;;;;;41.98;4.10;;;;;;;20.65;44.91;100425.30;2279140;76;51490;-76
2024/04/27 12:05:34;;;;;;;21.62;3.75;;;;;;;20.66;45.02;100435.53;2275745;76;49522;-77
2024/04/27 12:08:36;;;;;;;19.42;3.83;;;;;;;20.64;44.33;100442.97;2268423;76;52536;-75
2024/04/27 12:11:38;;;;;;;21.65;3.40;;;;;;;20.61;43.29;100424.03;2317924;76;50729;-75
2024/04/27 12:14:40;;;;;;;19.25;3.22;;;;;;;20.62;43.22;100422.98;2279098;76;50068;-74
2024/04/27 12:17:43;;;;;;;18.57;3.17;;;;;;;20.61;43.23;100413.80;2300940;76;51664;-75
2024/04/27 12:20:45;;;;;;;19.35;3.40;;;;;;;20.60;43.39;100433.63;2272813;77;51721;-75
2024/04/27 12:23:48;;;;;;;20.05;3.50;;;;;;;20.58;43.88;100419.59;2254935;78;50777;-75
2024/04/27 12:26:50;;;;;;;24.87;3.00;;;;;;;20.58;43.93;100424.45;2274242;78;51525;-74
2024/04/27 12:29:52;;;;;;;32.03;3.67;;;;;;;20.60;44.03;100424.22;2243612;78;51042;-74
2024/04/27 12:32:54;;;;;;;21.23;3.70;;;;;;;20.58;43.99;100418.24;2274471;78;50299;-75
2024/04/27 12:35:56;;;;;;;24.37;3.87;;;;;;;20.55;44.01;100412.76;2274251;78;50512;-75
2024/04/27 12:38:59;;;;;;;27.17;4.20;;;;;;;20.54;44.03;100413.77;2243773;78;50183;-75
2024/04/27 12:42:02;;;;;;;27.15;3.70;;;;;;;20.52;44.04;100417.14;2274420;78;51529;-75
2024/04/27 12:45:04;;;;;;;23.40;4.03;;;;;;;20.50;44.09;100424.59;2254808;78;50319;-74
2024/04/27 12:48:07;;;;;;;24.07;3.70;;;;;;;20.52;43.99;100419.83;2230836;78;51594;-75
2024/04/27 12:51:09;;;;;;;23.40;4.95;;;;;;;20.51;44.12;100426.24;2230817;78;51554;-76
2024/04/27 12:54:16;;;;;;;24.72;4.40;;;;;;;20.50;44.19;100419.22;2226434;78;49550;-76
2024/04/27 12:57:15;;;;;;;23.18;4.80;;;;;;;20.49;44.13;100422.92;2254723;78;22613;-75
2024/04/27 13:00:18;;;;;;;19.00;4.10;;;;;;;20.48;44.11;100413.73;2274366;78;52208;-74
2024/04/27 13:03:20;;;;;;;23.62;4.33;;;;;;;20.53;44.19;100410.75;2207536;78;50912;-76
2024/04/27 13:06:23;;;;;;;24.02;4.28;;;;;;;20.51;44.66;100414.14;2274102;77;51502;-76
2024/04/27 13:09:25;;;;;;;22.80;4.60;;;;;;;20.52;44.80;100411.76;2274336;76;51599;-76
2024/04/27 13:12:27;;;;;;;26.17;5.03;;;;;;;20.51;44.79;100406.61;2274399;76;50836;-76
2024/04/27 13:15:29;;;;;;;29.02;5.62;;;;;;;20.53;44.18;100410.75;2274154;77;50482;-77
2024/04/27 13:18:32;;;;;;;30.65;5.67;;;;;;;20.52;44.23;100413.11;2243654;78;49579;-76
2024/04/27 13:21:34;;;;;;;25.60;5.92;;;;;;;20.54;44.03;100412.91;2274440;76;50316;-77
2024/04/27 13:24:36;;;;;;;23.15;5.45;;;;;;;20.53;43.97;100402.69;2254974;78;50036;-77
2024/04/27 13:27:38;;;;;;;23.83;5.75;;;;;;;20.54;44.05;100405.70;2243434;77;52725;-77
2024/04/27 13:30:41;;;;;;;21.17;5.60;;;;;;;20.53;43.94;100406.72;2274490;78;51505;-77
2024/04/27 13:33:43;;;;;;;29.60;5.72;;;;;;;20.54;44.37;100391.41;2274562;77;51469;-77
2024/04/27 13:36:45;;;;;;;23.47;5.87;;;;;;;20.54;43.96;100396.30;2254914;77;50402;-77
2024/04/27 13:39:47;;;;;;;24.55;6.72;;;;;;;20.53;43.78;100404.03;2274452;77;50691;-77
2024/04/27 13:42:49;;;;;;;31.07;6.78;;;;;;;20.53;43.98;100407.23;2230606;78;49637;-77
2024/04/27 13:45:52;;;;;;;19.23;6.50;;;;;;;20.52;44.07;100388.91;2274381;76;50375;-77
2024/04/27 13:48:54;;;;;;;18.95;5.30;;;;;;;20.55;44.02;100396.63;2274611;76;52371;-77
2024/04/27 13:51:56;;;;;;;19.92;5.65;;;;;;;20.56;44.40;100389.39;2243771;78;52417;-77
2024/04/27 13:54:58;;;;;;;19.87;5.40;;;;;;;20.56;44.23;100392.08;2274390;77;51534;-77
2024/04/27 13:58:00;;;;;;;21.10;5.45;;;;;;;20.57;44.34;100386.48;2274342;78;51497;-77
2024/04/27 14:01:03;;;;;;;17.00;5.30;;;;;;;20.59;44.42;100387.63;2274517;76;51526;-77
2024/04/27 14:04:05;;;;;;;18.55;4.97;;;;;;;20.58;44.48;100384.64;2230996;78;50064;-76
2024/04/27 14:07:07;;;;;;;22.37;6.03;;;;;;;20.56;44.47;100393.42;2228949;77;51305;-77